sensor_id;sensor_type;location;lat;lon;timestamp;P1;durP1;ratioP1;P2;durP2;ratioP2
13493;SDS011;6819;50.886;4.332;2023-12-07T00:01:39;48.58;;;14.93;;
13493;SDS011;6819;50.886;4.332;2023-12-07T00:04:04;45.45;;;13.50;;
13493;SDS011;6819;50.886;4.332;2023-12-07T00:06:30;38.13;;;11.75;;
13493;SDS011;6819;50.886;4.332;2023-12-07T00:08:56;43.65;;;13.35;;
13493;SDS011;6819;50.886;4.332;2023-12-07T00:11:23;39.92;;;13.50;;
13493;SDS011;6819;50.886;4.332;2023-12-07T00:13:49;44.78;;;12.40;;
13493;SDS011;6819;50.886;4.332;2023-12-07T00:16:14;36.50;;;11.68;;
13493;SDS011;6819;50.886;4.332;2023-12-07T00:18:40;29.17;;;11.20;;
13493;SDS011;6819;50.886;4.332;2023-12-07T00:21:07;42.50;;;12.75;;
13493;SDS011;6819;50.886;4.332;2023-12-07T00:23:34;45.28;;;13.13;;
13493;SDS011;6819;50.886;4.332;2023-12-07T00:25:59;41.40;;;13.00;;
13493;SDS011;6819;50.886;4.332;2023-12-07T00:28:25;46.60;;;13.57;;
13493;SDS011;6819;50.886;4.332;2023-12-07T00:30:51;50.25;;;12.43;;
13493;SDS011;6819;50.886;4.332;2023-12-07T00:33:17;39.97;;;13.40;;
13493;SDS011;6819;50.886;4.332;2023-12-07T00:35:43;45.13;;;14.38;;
13493;SDS011;6819;50.886;4.332;2023-12-07T00:38:08;52.65;;;14.15;;
13493;SDS011;6819;50.886;4.332;2023-12-07T00:40:35;34.72;;;12.95;;
13493;SDS011;6819;50.886;4.332;2023-12-07T00:43:03;37.00;;;12.77;;
13493;SDS011;6819;50.886;4.332;2023-12-07T00:45:29;39.22;;;12.52;;
13493;SDS011;6819;50.886;4.332;2023-12-07T00:47:55;38.83;;;11.45;;
13493;SDS011;6819;50.886;4.332;2023-12-07T00:50:21;42.47;;;12.82;;
13493;SDS011;6819;50.886;4.332;2023-12-07T00:52:47;40.05;;;12.77;;
13493;SDS011;6819;50.886;4.332;2023-12-07T00:55:13;36.58;;;12.85;;
13493;SDS011;6819;50.886;4.332;2023-12-07T00:57:39;40.63;;;13.93;;
13493;SDS011;6819;50.886;4.332;2023-12-07T01:00:05;40.60;;;12.95;;
13493;SDS011;6819;50.886;4.332;2023-12-07T01:02:31;47.15;;;14.38;;
13493;SDS011;6819;50.886;4.332;2023-12-07T01:04:57;41.03;;;13.18;;
13493;SDS011;6819;50.886;4.332;2023-12-07T01:07:23;40.13;;;13.85;;
13493;SDS011;6819;50.886;4.332;2023-12-07T01:09:48;41.58;;;13.82;;
13493;SDS011;6819;50.886;4.332;2023-12-07T01:12:14;37.92;;;13.07;;
13493;SDS011;6819;50.886;4.332;2023-12-07T01:14:40;46.42;;;13.18;;
13493;SDS011;6819;50.886;4.332;2023-12-07T01:17:06;38.33;;;13.88;;
13493;SDS011;6819;50.886;4.332;2023-12-07T01:19:32;43.92;;;13.20;;
13493;SDS011;6819;50.886;4.332;2023-12-07T01:21:57;38.20;;;14.27;;
13493;SDS011;6819;50.886;4.332;2023-12-07T01:24:23;38.05;;;13.02;;
13493;SDS011;6819;50.886;4.332;2023-12-07T01:26:48;46.08;;;13.85;;
13493;SDS011;6819;50.886;4.332;2023-12-07T01:29:14;39.65;;;14.13;;
13493;SDS011;6819;50.886;4.332;2023-12-07T01:31:40;34.17;;;12.70;;
13493;SDS011;6819;50.886;4.332;2023-12-07T01:34:06;37.42;;;12.63;;
13493;SDS011;6819;50.886;4.332;2023-12-07T01:36:31;33.53;;;12.68;;
13493;SDS011;6819;50.886;4.332;2023-12-07T01:38:57;37.65;;;13.70;;
13493;SDS011;6819;50.886;4.332;2023-12-07T01:41:23;36.35;;;13.25;;
13493;SDS011;6819;50.886;4.332;2023-12-07T01:43:49;41.70;;;13.55;;
13493;SDS011;6819;50.886;4.332;2023-12-07T01:46:15;42.50;;;14.10;;
13493;SDS011;6819;50.886;4.332;2023-12-07T01:48:42;42.85;;;14.73;;
13493;SDS011;6819;50.886;4.332;2023-12-07T01:51:09;39.13;;;13.35;;
13493;SDS011;6819;50.886;4.332;2023-12-07T01:53:35;42.35;;;13.02;;
13493;SDS011;6819;50.886;4.332;2023-12-07T01:56:04;29.70;;;11.98;;
13493;SDS011;6819;50.886;4.332;2023-12-07T01:58:30;37.05;;;12.20;;
13493;SDS011;6819;50.886;4.332;2023-12-07T02:00:56;41.10;;;13.77;;
13493;SDS011;6819;50.886;4.332;2023-12-07T02:03:22;37.20;;;12.68;;
13493;SDS011;6819;50.886;4.332;2023-12-07T02:05:49;34.90;;;13.48;;
13493;SDS011;6819;50.886;4.332;2023-12-07T02:08:15;39.08;;;13.07;;
13493;SDS011;6819;50.886;4.332;2023-12-07T02:10:41;32.53;;;11.80;;
13493;SDS011;6819;50.886;4.332;2023-12-07T02:13:07;31.88;;;11.43;;
13493;SDS011;6819;50.886;4.332;2023-12-07T02:15:33;34.65;;;11.95;;
13493;SDS011;6819;50.886;4.332;2023-12-07T02:18:19;31.70;;;11.98;;
13493;SDS011;6819;50.886;4.332;2023-12-07T02:20:49;30.58;;;11.25;;
13493;SDS011;6819;50.886;4.332;2023-12-07T02:23:17;36.00;;;12.70;;
13493;SDS011;6819;50.886;4.332;2023-12-07T02:28:12;34.95;;;13.73;;
13493;SDS011;6819;50.886;4.332;2023-12-07T02:30:38;29.95;;;11.15;;
13493;SDS011;6819;50.886;4.332;2023-12-07T02:33:04;27.38;;;10.27;;
13493;SDS011;6819;50.886;4.332;2023-12-07T02:35:31;22.73;;;9.93;;
13493;SDS011;6819;50.886;4.332;2023-12-07T02:37:57;22.65;;;10.68;;
13493;SDS011;6819;50.886;4.332;2023-12-07T02:40:24;27.67;;;10.35;;
13493;SDS011;6819;50.886;4.332;2023-12-07T02:42:52;20.08;;;8.75;;
13493;SDS011;6819;50.886;4.332;2023-12-07T02:45:18;28.02;;;10.68;;
13493;SDS011;6819;50.886;4.332;2023-12-07T02:47:44;28.35;;;11.68;;
13493;SDS011;6819;50.886;4.332;2023-12-07T02:50:10;28.95;;;10.20;;
13493;SDS011;6819;50.886;4.332;2023-12-07T02:52:36;30.10;;;9.85;;
13493;SDS011;6819;50.886;4.332;2023-12-07T02:55:02;23.30;;;9.77;;
13493;SDS011;6819;50.886;4.332;2023-12-07T02:57:28;24.52;;;10.32;;
13493;SDS011;6819;50.886;4.332;2023-12-07T02:59:54;27.40;;;9.80;;
13493;SDS011;6819;50.886;4.332;2023-12-07T03:02:20;25.98;;;10.38;;
13493;SDS011;6819;50.886;4.332;2023-12-07T03:04:46;26.08;;;10.15;;
13493;SDS011;6819;50.886;4.332;2023-12-07T03:07:12;30.08;;;10.60;;
13493;SDS011;6819;50.886;4.332;2023-12-07T03:09:38;27.80;;;10.32;;
13493;SDS011;6819;50.886;4.332;2023-12-07T03:12:03;26.55;;;10.75;;
13493;SDS011;6819;50.886;4.332;2023-12-07T03:14:30;23.02;;;9.50;;
13493;SDS011;6819;50.886;4.332;2023-12-07T03:16:55;27.92;;;10.07;;
13493;SDS011;6819;50.886;4.332;2023-12-07T03:19:21;29.45;;;10.52;;
13493;SDS011;6819;50.886;4.332;2023-12-07T03:21:46;26.45;;;10.68;;
13493;SDS011;6819;50.886;4.332;2023-12-07T03:24:12;22.23;;;9.40;;
13493;SDS011;6819;50.886;4.332;2023-12-07T03:26:38;29.65;;;9.85;;
13493;SDS011;6819;50.886;4.332;2023-12-07T03:29:03;26.52;;;10.25;;
13493;SDS011;6819;50.886;4.332;2023-12-07T03:31:29;22.25;;;10.15;;
13493;SDS011;6819;50.886;4.332;2023-12-07T03:33:55;23.60;;;10.38;;
13493;SDS011;6819;50.886;4.332;2023-12-07T03:36:21;30.38;;;10.60;;
13493;SDS011;6819;50.886;4.332;2023-12-07T03:38:48;26.73;;;10.50;;
13493;SDS011;6819;50.886;4.332;2023-12-07T03:41:14;27.02;;;10.82;;
13493;SDS011;6819;50.886;4.332;2023-12-07T03:43:40;22.52;;;9.80;;
13493;SDS011;6819;50.886;4.332;2023-12-07T03:46:06;21.65;;;10.10;;
13493;SDS011;6819;50.886;4.332;2023-12-07T03:48:33;24.45;;;8.70;;
13493;SDS011;6819;50.886;4.332;2023-12-07T03:50:59;28.02;;;10.10;;
13493;SDS011;6819;50.886;4.332;2023-12-07T03:53:26;19.60;;;10.02;;
13493;SDS011;6819;50.886;4.332;2023-12-07T03:55:52;29.15;;;10.43;;
13493;SDS011;6819;50.886;4.332;2023-12-07T03:58:18;21.15;;;9.02;;
13493;SDS011;6819;50.886;4.332;2023-12-07T04:00:44;22.23;;;9.32;;
13493;SDS011;6819;50.886;4.332;2023-12-07T04:03:10;21.33;;;8.68;;
13493;SDS011;6819;50.886;4.332;2023-12-07T04:05:36;22.80;;;10.25;;
13493;SDS011;6819;50.886;4.332;2023-12-07T04:08:03;25.45;;;8.85;;
13493;SDS011;6819;50.886;4.332;2023-12-07T04:10:32;22.05;;;9.10;;
13493;SDS011;6819;50.886;4.332;2023-12-07T04:12:59;18.92;;;8.38;;
13493;SDS011;6819;50.886;4.332;2023-12-07T04:15:25;23.85;;;9.52;;
13493;SDS011;6819;50.886;4.332;2023-12-07T04:17:51;20.42;;;8.98;;
13493;SDS011;6819;50.886;4.332;2023-12-07T04:20:17;17.83;;;9.07;;
13493;SDS011;6819;50.886;4.332;2023-12-07T04:22:44;19.27;;;8.48;;
13493;SDS011;6819;50.886;4.332;2023-12-07T04:25:10;17.52;;;8.85;;
13493;SDS011;6819;50.886;4.332;2023-12-07T04:27:36;24.25;;;9.18;;
13493;SDS011;6819;50.886;4.332;2023-12-07T04:30:03;22.95;;;9.52;;
13493;SDS011;6819;50.886;4.332;2023-12-07T04:32:29;20.88;;;10.13;;
13493;SDS011;6819;50.886;4.332;2023-12-07T04:34:55;31.20;;;10.18;;
13493;SDS011;6819;50.886;4.332;2023-12-07T04:37:21;20.98;;;8.82;;
13493;SDS011;6819;50.886;4.332;2023-12-07T04:39:47;17.50;;;9.20;;
13493;SDS011;6819;50.886;4.332;2023-12-07T04:42:13;24.65;;;9.50;;
13493;SDS011;6819;50.886;4.332;2023-12-07T04:44:39;19.45;;;9.32;;
13493;SDS011;6819;50.886;4.332;2023-12-07T04:47:05;18.90;;;9.38;;
13493;SDS011;6819;50.886;4.332;2023-12-07T04:49:31;22.60;;;9.13;;
13493;SDS011;6819;50.886;4.332;2023-12-07T04:51:57;17.23;;;8.55;;
13493;SDS011;6819;50.886;4.332;2023-12-07T04:54:23;21.65;;;9.20;;
13493;SDS011;6819;50.886;4.332;2023-12-07T04:56:49;18.75;;;8.55;;
13493;SDS011;6819;50.886;4.332;2023-12-07T04:59:15;17.80;;;8.65;;
13493;SDS011;6819;50.886;4.332;2023-12-07T05:01:42;17.83;;;8.73;;
13493;SDS011;6819;50.886;4.332;2023-12-07T05:04:08;22.60;;;8.52;;
13493;SDS011;6819;50.886;4.332;2023-12-07T05:06:34;20.48;;;9.15;;
13493;SDS011;6819;50.886;4.332;2023-12-07T05:09:00;18.30;;;8.30;;
13493;SDS011;6819;50.886;4.332;2023-12-07T05:11:26;17.75;;;8.00;;
13493;SDS011;6819;50.886;4.332;2023-12-07T05:13:52;20.50;;;9.05;;
13493;SDS011;6819;50.886;4.332;2023-12-07T05:16:18;17.83;;;9.38;;
13493;SDS011;6819;50.886;4.332;2023-12-07T05:18:44;18.50;;;8.57;;
13493;SDS011;6819;50.886;4.332;2023-12-07T05:21:11;18.50;;;9.23;;
13493;SDS011;6819;50.886;4.332;2023-12-07T05:23:37;20.45;;;8.70;;
13493;SDS011;6819;50.886;4.332;2023-12-07T05:26:03;19.73;;;8.85;;
13493;SDS011;6819;50.886;4.332;2023-12-07T05:28:29;19.35;;;9.25;;
13493;SDS011;6819;50.886;4.332;2023-12-07T05:30:55;19.35;;;8.63;;
13493;SDS011;6819;50.886;4.332;2023-12-07T05:33:22;25.50;;;9.40;;
13493;SDS011;6819;50.886;4.332;2023-12-07T05:35:48;17.20;;;8.98;;
13493;SDS011;6819;50.886;4.332;2023-12-07T05:38:14;19.38;;;8.93;;
13493;SDS011;6819;50.886;4.332;2023-12-07T05:40:40;18.33;;;8.55;;
13493;SDS011;6819;50.886;4.332;2023-12-07T05:43:06;19.88;;;9.57;;
13493;SDS011;6819;50.886;4.332;2023-12-07T05:45:33;16.40;;;8.95;;
13493;SDS011;6819;50.886;4.332;2023-12-07T05:47:59;20.70;;;8.77;;
13493;SDS011;6819;50.886;4.332;2023-12-07T05:50:25;17.58;;;8.25;;
13493;SDS011;6819;50.886;4.332;2023-12-07T05:52:51;18.58;;;8.20;;
13493;SDS011;6819;50.886;4.332;2023-12-07T05:55:17;16.48;;;8.65;;
13493;SDS011;6819;50.886;4.332;2023-12-07T05:57:46;15.57;;;8.60;;
13493;SDS011;6819;50.886;4.332;2023-12-07T06:00:13;17.80;;;8.18;;
13493;SDS011;6819;50.886;4.332;2023-12-07T06:02:41;16.75;;;8.23;;
13493;SDS011;6819;50.886;4.332;2023-12-07T06:05:07;17.23;;;7.78;;
13493;SDS011;6819;50.886;4.332;2023-12-07T06:07:33;19.67;;;8.65;;
13493;SDS011;6819;50.886;4.332;2023-12-07T06:09:59;20.63;;;8.73;;
13493;SDS011;6819;50.886;4.332;2023-12-07T06:12:25;17.10;;;7.93;;
13493;SDS011;6819;50.886;4.332;2023-12-07T06:14:51;15.85;;;8.05;;
13493;SDS011;6819;50.886;4.332;2023-12-07T06:17:18;18.85;;;8.98;;
13493;SDS011;6819;50.886;4.332;2023-12-07T06:19:44;19.63;;;8.35;;
13493;SDS011;6819;50.886;4.332;2023-12-07T06:22:10;13.10;;;7.05;;
13493;SDS011;6819;50.886;4.332;2023-12-07T06:24:36;17.77;;;7.68;;
13493;SDS011;6819;50.886;4.332;2023-12-07T06:27:02;15.73;;;8.05;;
13493;SDS011;6819;50.886;4.332;2023-12-07T06:29:28;14.55;;;7.57;;
13493;SDS011;6819;50.886;4.332;2023-12-07T06:31:54;15.95;;;7.85;;
13493;SDS011;6819;50.886;4.332;2023-12-07T06:34:20;17.77;;;8.60;;
13493;SDS011;6819;50.886;4.332;2023-12-07T06:36:46;19.73;;;8.70;;
13493;SDS011;6819;50.886;4.332;2023-12-07T06:39:13;13.60;;;7.47;;
13493;SDS011;6819;50.886;4.332;2023-12-07T06:41:42;17.67;;;7.57;;
13493;SDS011;6819;50.886;4.332;2023-12-07T06:44:08;16.75;;;8.23;;
13493;SDS011;6819;50.886;4.332;2023-12-07T06:46:34;17.55;;;7.97;;
13493;SDS011;6819;50.886;4.332;2023-12-07T06:49:00;17.13;;;7.75;;
13493;SDS011;6819;50.886;4.332;2023-12-07T06:51:26;15.57;;;7.22;;
13493;SDS011;6819;50.886;4.332;2023-12-07T06:53:52;17.60;;;7.78;;
13493;SDS011;6819;50.886;4.332;2023-12-07T06:56:18;16.45;;;7.95;;
13493;SDS011;6819;50.886;4.332;2023-12-07T06:58:44;14.30;;;7.07;;
13493;SDS011;6819;50.886;4.332;2023-12-07T07:01:10;20.63;;;7.82;;
13493;SDS011;6819;50.886;4.332;2023-12-07T07:03:38;13.70;;;7.55;;
13493;SDS011;6819;50.886;4.332;2023-12-07T07:06:04;17.13;;;8.23;;
13493;SDS011;6819;50.886;4.332;2023-12-07T07:08:30;14.68;;;7.50;;
13493;SDS011;6819;50.886;4.332;2023-12-07T07:10:56;23.27;;;8.32;;
13493;SDS011;6819;50.886;4.332;2023-12-07T07:13:22;15.32;;;7.75;;
13493;SDS011;6819;50.886;4.332;2023-12-07T07:15:48;19.00;;;7.28;;
13493;SDS011;6819;50.886;4.332;2023-12-07T07:18:14;13.50;;;6.57;;
13493;SDS011;6819;50.886;4.332;2023-12-07T07:20:40;16.38;;;7.47;;
13493;SDS011;6819;50.886;4.332;2023-12-07T07:23:06;17.48;;;7.90;;
13493;SDS011;6819;50.886;4.332;2023-12-07T07:25:33;17.58;;;7.55;;
13493;SDS011;6819;50.886;4.332;2023-12-07T07:27:59;15.80;;;6.80;;
13493;SDS011;6819;50.886;4.332;2023-12-07T07:30:26;18.23;;;8.00;;
13493;SDS011;6819;50.886;4.332;2023-12-07T07:32:52;15.57;;;7.90;;
13493;SDS011;6819;50.886;4.332;2023-12-07T07:35:18;16.00;;;7.15;;
13493;SDS011;6819;50.886;4.332;2023-12-07T07:37:44;15.50;;;6.60;;
13493;SDS011;6819;50.886;4.332;2023-12-07T07:40:10;14.45;;;6.50;;
13493;SDS011;6819;50.886;4.332;2023-12-07T07:42:39;17.02;;;7.28;;
13493;SDS011;6819;50.886;4.332;2023-12-07T07:45:09;14.48;;;7.30;;
13493;SDS011;6819;50.886;4.332;2023-12-07T07:47:35;11.35;;;6.25;;
13493;SDS011;6819;50.886;4.332;2023-12-07T07:50:01;23.08;;;7.47;;
13493;SDS011;6819;50.886;4.332;2023-12-07T07:52:31;22.15;;;7.82;;
13493;SDS011;6819;50.886;4.332;2023-12-07T07:54:57;13.63;;;6.68;;
13493;SDS011;6819;50.886;4.332;2023-12-07T07:57:23;12.23;;;7.22;;
13493;SDS011;6819;50.886;4.332;2023-12-07T07:59:49;15.25;;;7.22;;
13493;SDS011;6819;50.886;4.332;2023-12-07T08:02:15;17.77;;;7.65;;
13493;SDS011;6819;50.886;4.332;2023-12-07T08:04:41;13.80;;;6.28;;
13493;SDS011;6819;50.886;4.332;2023-12-07T08:07:07;17.88;;;7.60;;
13493;SDS011;6819;50.886;4.332;2023-12-07T08:09:36;22.38;;;7.55;;
13493;SDS011;6819;50.886;4.332;2023-12-07T08:12:02;15.55;;;7.38;;
13493;SDS011;6819;50.886;4.332;2023-12-07T08:14:28;14.35;;;6.93;;
13493;SDS011;6819;50.886;4.332;2023-12-07T08:16:54;13.27;;;6.97;;
13493;SDS011;6819;50.886;4.332;2023-12-07T08:19:20;18.55;;;7.88;;
13493;SDS011;6819;50.886;4.332;2023-12-07T08:21:46;13.57;;;7.30;;
13493;SDS011;6819;50.886;4.332;2023-12-07T08:24:13;14.65;;;7.28;;
13493;SDS011;6819;50.886;4.332;2023-12-07T08:26:39;16.52;;;7.20;;
13493;SDS011;6819;50.886;4.332;2023-12-07T08:29:06;17.70;;;6.90;;
13493;SDS011;6819;50.886;4.332;2023-12-07T08:31:32;17.63;;;7.50;;
13493;SDS011;6819;50.886;4.332;2023-12-07T08:33:58;17.60;;;6.88;;
13493;SDS011;6819;50.886;4.332;2023-12-07T08:36:25;14.23;;;7.15;;
13493;SDS011;6819;50.886;4.332;2023-12-07T08:38:51;14.98;;;7.68;;
13493;SDS011;6819;50.886;4.332;2023-12-07T08:41:17;23.70;;;8.93;;
13493;SDS011;6819;50.886;4.332;2023-12-07T08:43:43;12.98;;;7.00;;
13493;SDS011;6819;50.886;4.332;2023-12-07T08:46:09;16.33;;;7.13;;
13493;SDS011;6819;50.886;4.332;2023-12-07T08:48:36;15.90;;;8.07;;
13493;SDS011;6819;50.886;4.332;2023-12-07T08:51:03;14.48;;;7.13;;
13493;SDS011;6819;50.886;4.332;2023-12-07T08:53:29;15.25;;;7.38;;
13493;SDS011;6819;50.886;4.332;2023-12-07T08:55:55;14.80;;;6.88;;
13493;SDS011;6819;50.886;4.332;2023-12-07T08:58:21;18.13;;;6.97;;
13493;SDS011;6819;50.886;4.332;2023-12-07T09:00:47;12.55;;;7.18;;
13493;SDS011;6819;50.886;4.332;2023-12-07T09:03:13;12.77;;;5.75;;
13493;SDS011;6819;50.886;4.332;2023-12-07T09:05:39;10.98;;;6.43;;
13493;SDS011;6819;50.886;4.332;2023-12-07T09:08:05;14.52;;;6.85;;
13493;SDS011;6819;50.886;4.332;2023-12-07T09:10:31;15.57;;;6.95;;
13493;SDS011;6819;50.886;4.332;2023-12-07T09:12:57;11.32;;;6.47;;
13493;SDS011;6819;50.886;4.332;2023-12-07T09:15:23;17.00;;;7.28;;
13493;SDS011;6819;50.886;4.332;2023-12-07T09:17:49;14.50;;;6.45;;
13493;SDS011;6819;50.886;4.332;2023-12-07T09:20:16;13.25;;;6.47;;
13493;SDS011;6819;50.886;4.332;2023-12-07T09:22:45;11.32;;;6.30;;
13493;SDS011;6819;50.886;4.332;2023-12-07T09:25:11;11.95;;;6.45;;
13493;SDS011;6819;50.886;4.332;2023-12-07T09:27:38;14.65;;;6.05;;
13493;SDS011;6819;50.886;4.332;2023-12-07T09:30:05;17.77;;;6.90;;
13493;SDS011;6819;50.886;4.332;2023-12-07T09:32:31;12.52;;;6.20;;
13493;SDS011;6819;50.886;4.332;2023-12-07T09:35:03;15.60;;;5.80;;
13493;SDS011;6819;50.886;4.332;2023-12-07T09:37:29;16.00;;;6.75;;
13493;SDS011;6819;50.886;4.332;2023-12-07T09:39:55;18.48;;;6.78;;
13493;SDS011;6819;50.886;4.332;2023-12-07T09:42:22;16.45;;;6.07;;
13493;SDS011;6819;50.886;4.332;2023-12-07T09:44:48;10.05;;;5.63;;
13493;SDS011;6819;50.886;4.332;2023-12-07T09:47:14;13.60;;;5.68;;
13493;SDS011;6819;50.886;4.332;2023-12-07T09:49:40;14.30;;;6.05;;
13493;SDS011;6819;50.886;4.332;2023-12-07T09:52:06;15.18;;;6.57;;
13493;SDS011;6819;50.886;4.332;2023-12-07T09:54:33;10.50;;;5.70;;
13493;SDS011;6819;50.886;4.332;2023-12-07T09:57:00;11.02;;;5.82;;
13493;SDS011;6819;50.886;4.332;2023-12-07T09:59:26;9.98;;;5.43;;
13493;SDS011;6819;50.886;4.332;2023-12-07T10:01:52;14.07;;;6.55;;
13493;SDS011;6819;50.886;4.332;2023-12-07T10:04:19;9.63;;;5.20;;
13493;SDS011;6819;50.886;4.332;2023-12-07T10:06:45;11.23;;;5.30;;
13493;SDS011;6819;50.886;4.332;2023-12-07T10:09:15;8.82;;;5.25;;
13493;SDS011;6819;50.886;4.332;2023-12-07T10:11:41;9.65;;;5.30;;
13493;SDS011;6819;50.886;4.332;2023-12-07T10:14:09;10.07;;;5.53;;
13493;SDS011;6819;50.886;4.332;2023-12-07T10:16:35;11.90;;;5.38;;
13493;SDS011;6819;50.886;4.332;2023-12-07T10:19:14;14.18;;;6.15;;
13493;SDS011;6819;50.886;4.332;2023-12-07T10:21:42;13.02;;;5.82;;
13493;SDS011;6819;50.886;4.332;2023-12-07T10:24:09;11.43;;;5.25;;
13493;SDS011;6819;50.886;4.332;2023-12-07T10:26:36;13.40;;;6.72;;
13493;SDS011;6819;50.886;4.332;2023-12-07T10:31:17;9.75;;;5.30;;
13493;SDS011;6819;50.886;4.332;2023-12-07T10:33:47;13.95;;;6.20;;
13493;SDS011;6819;50.886;4.332;2023-12-07T10:36:14;11.10;;;4.97;;
13493;SDS011;6819;50.886;4.332;2023-12-07T10:38:40;13.18;;;5.40;;
13493;SDS011;6819;50.886;4.332;2023-12-07T10:41:11;10.65;;;5.18;;
13493;SDS011;6819;50.886;4.332;2023-12-07T10:43:43;13.13;;;5.40;;
13493;SDS011;6819;50.886;4.332;2023-12-07T10:46:09;12.52;;;5.93;;
13493;SDS011;6819;50.886;4.332;2023-12-07T10:48:41;11.75;;;4.95;;
13493;SDS011;6819;50.886;4.332;2023-12-07T10:51:10;10.88;;;5.18;;
13493;SDS011;6819;50.886;4.332;2023-12-07T10:53:50;11.02;;;5.38;;
13493;SDS011;6819;50.886;4.332;2023-12-07T10:56:20;7.95;;;4.68;;
13493;SDS011;6819;50.886;4.332;2023-12-07T10:58:55;11.88;;;5.43;;
13493;SDS011;6819;50.886;4.332;2023-12-07T11:01:22;9.13;;;5.20;;
13493;SDS011;6819;50.886;4.332;2023-12-07T11:03:49;9.50;;;5.18;;
13493;SDS011;6819;50.886;4.332;2023-12-07T11:06:18;15.43;;;5.40;;
13493;SDS011;6819;50.886;4.332;2023-12-07T11:08:51;13.25;;;5.13;;
13493;SDS011;6819;50.886;4.332;2023-12-07T11:11:24;10.93;;;4.95;;
13493;SDS011;6819;50.886;4.332;2023-12-07T11:14:05;10.57;;;4.15;;
13493;SDS011;6819;50.886;4.332;2023-12-07T11:16:34;8.73;;;4.80;;
13493;SDS011;6819;50.886;4.332;2023-12-07T11:19:01;11.05;;;4.70;;
13493;SDS011;6819;50.886;4.332;2023-12-07T11:21:28;8.85;;;5.10;;
13493;SDS011;6819;50.886;4.332;2023-12-07T11:23:53;16.90;;;5.43;;
13493;SDS011;6819;50.886;4.332;2023-12-07T11:26:20;9.38;;;5.18;;
13493;SDS011;6819;50.886;4.332;2023-12-07T11:28:49;8.35;;;4.93;;
13493;SDS011;6819;50.886;4.332;2023-12-07T11:31:15;9.52;;;4.55;;
13493;SDS011;6819;50.886;4.332;2023-12-07T11:33:42;9.90;;;5.35;;
13493;SDS011;6819;50.886;4.332;2023-12-07T11:36:08;7.07;;;4.32;;
13493;SDS011;6819;50.886;4.332;2023-12-07T11:38:38;9.50;;;4.10;;
13493;SDS011;6819;50.886;4.332;2023-12-07T11:41:44;9.85;;;4.63;;
13493;SDS011;6819;50.886;4.332;2023-12-07T11:44:10;6.70;;;3.72;;
13493;SDS011;6819;50.886;4.332;2023-12-07T11:46:37;9.82;;;4.65;;
13493;SDS011;6819;50.886;4.332;2023-12-07T11:49:03;7.57;;;4.20;;
13493;SDS011;6819;50.886;4.332;2023-12-07T11:51:30;9.10;;;4.70;;
13493;SDS011;6819;50.886;4.332;2023-12-07T11:53:56;14.95;;;4.97;;
13493;SDS011;6819;50.886;4.332;2023-12-07T11:56:22;10.85;;;4.75;;
13493;SDS011;6819;50.886;4.332;2023-12-07T11:58:47;9.55;;;5.22;;
13493;SDS011;6819;50.886;4.332;2023-12-07T12:01:14;5.28;;;3.78;;
13493;SDS011;6819;50.886;4.332;2023-12-07T12:03:41;10.82;;;4.20;;
13493;SDS011;6819;50.886;4.332;2023-12-07T12:06:08;12.05;;;4.35;;
13493;SDS011;6819;50.886;4.332;2023-12-07T12:08:35;8.25;;;4.28;;
13493;SDS011;6819;50.886;4.332;2023-12-07T12:11:01;9.15;;;4.20;;
13493;SDS011;6819;50.886;4.332;2023-12-07T12:13:28;11.88;;;4.18;;
13493;SDS011;6819;50.886;4.332;2023-12-07T12:15:55;10.10;;;4.05;;
13493;SDS011;6819;50.886;4.332;2023-12-07T12:18:23;10.30;;;4.38;;
13493;SDS011;6819;50.886;4.332;2023-12-07T12:20:51;13.25;;;4.03;;
13493;SDS011;6819;50.886;4.332;2023-12-07T12:23:18;6.88;;;4.05;;
13493;SDS011;6819;50.886;4.332;2023-12-07T12:25:44;7.60;;;3.92;;
13493;SDS011;6819;50.886;4.332;2023-12-07T12:28:11;7.93;;;4.38;;
13493;SDS011;6819;50.886;4.332;2023-12-07T12:30:40;7.63;;;4.13;;
13493;SDS011;6819;50.886;4.332;2023-12-07T12:33:07;8.38;;;3.75;;
13493;SDS011;6819;50.886;4.332;2023-12-07T12:35:32;10.57;;;4.85;;
13493;SDS011;6819;50.886;4.332;2023-12-07T12:37:58;14.20;;;4.50;;
13493;SDS011;6819;50.886;4.332;2023-12-07T12:40:26;7.72;;;4.40;;
13493;SDS011;6819;50.886;4.332;2023-12-07T12:42:54;9.93;;;4.30;;
13493;SDS011;6819;50.886;4.332;2023-12-07T12:45:20;10.82;;;4.60;;
13493;SDS011;6819;50.886;4.332;2023-12-07T12:47:47;8.60;;;4.13;;
13493;SDS011;6819;50.886;4.332;2023-12-07T12:53:05;5.68;;;4.07;;
13493;SDS011;6819;50.886;4.332;2023-12-07T12:55:36;9.77;;;4.15;;
13493;SDS011;6819;50.886;4.332;2023-12-07T12:58:04;5.55;;;3.58;;
13493;SDS011;6819;50.886;4.332;2023-12-07T13:00:32;11.88;;;4.50;;
13493;SDS011;6819;50.886;4.332;2023-12-07T13:02:58;8.13;;;4.15;;
13493;SDS011;6819;50.886;4.332;2023-12-07T13:05:25;8.55;;;4.60;;
13493;SDS011;6819;50.886;4.332;2023-12-07T13:07:51;6.00;;;4.03;;
13493;SDS011;6819;50.886;4.332;2023-12-07T13:10:17;10.90;;;3.55;;
13493;SDS011;6819;50.886;4.332;2023-12-07T13:12:43;8.27;;;4.28;;
13493;SDS011;6819;50.886;4.332;2023-12-07T13:16:18;7.30;;;4.00;;
13493;SDS011;6819;50.886;4.332;2023-12-07T13:18:46;7.32;;;4.38;;
13493;SDS011;6819;50.886;4.332;2023-12-07T13:21:12;7.78;;;3.67;;
13493;SDS011;6819;50.886;4.332;2023-12-07T13:23:40;9.90;;;3.35;;
13493;SDS011;6819;50.886;4.332;2023-12-07T13:26:06;6.95;;;3.90;;
13493;SDS011;6819;50.886;4.332;2023-12-07T13:28:32;9.68;;;4.10;;
13493;SDS011;6819;50.886;4.332;2023-12-07T13:30:58;11.30;;;4.72;;
13493;SDS011;6819;50.886;4.332;2023-12-07T13:33:24;8.50;;;3.95;;
13493;SDS011;6819;50.886;4.332;2023-12-07T13:35:51;8.52;;;4.22;;
13493;SDS011;6819;50.886;4.332;2023-12-07T13:38:19;10.35;;;4.28;;
13493;SDS011;6819;50.886;4.332;2023-12-07T13:40:46;6.95;;;3.55;;
13493;SDS011;6819;50.886;4.332;2023-12-07T13:43:12;5.32;;;3.60;;
13493;SDS011;6819;50.886;4.332;2023-12-07T13:45:38;5.93;;;3.80;;
13493;SDS011;6819;50.886;4.332;2023-12-07T13:48:04;11.50;;;4.05;;
13493;SDS011;6819;50.886;4.332;2023-12-07T13:50:30;7.60;;;4.00;;
13493;SDS011;6819;50.886;4.332;2023-12-07T13:52:56;14.38;;;4.40;;
13493;SDS011;6819;50.886;4.332;2023-12-07T13:55:22;7.18;;;3.95;;
13493;SDS011;6819;50.886;4.332;2023-12-07T13:57:49;10.82;;;3.53;;
13493;SDS011;6819;50.886;4.332;2023-12-07T14:00:17;9.18;;;4.30;;
13493;SDS011;6819;50.886;4.332;2023-12-07T14:02:44;5.50;;;3.15;;
13493;SDS011;6819;50.886;4.332;2023-12-07T14:05:11;13.07;;;4.32;;
13493;SDS011;6819;50.886;4.332;2023-12-07T14:07:37;10.38;;;3.35;;
13493;SDS011;6819;50.886;4.332;2023-12-07T14:10:03;7.53;;;3.95;;
13493;SDS011;6819;50.886;4.332;2023-12-07T14:12:29;14.75;;;3.83;;
13493;SDS011;6819;50.886;4.332;2023-12-07T14:14:55;9.90;;;3.85;;
13493;SDS011;6819;50.886;4.332;2023-12-07T14:17:21;9.77;;;4.13;;
13493;SDS011;6819;50.886;4.332;2023-12-07T14:19:47;9.32;;;3.78;;
13493;SDS011;6819;50.886;4.332;2023-12-07T14:22:13;8.90;;;3.90;;
13493;SDS011;6819;50.886;4.332;2023-12-07T14:24:39;9.68;;;3.70;;
13493;SDS011;6819;50.886;4.332;2023-12-07T14:27:06;8.77;;;3.85;;
13493;SDS011;6819;50.886;4.332;2023-12-07T14:29:33;7.82;;;3.83;;
13493;SDS011;6819;50.886;4.332;2023-12-07T14:31:59;8.27;;;3.83;;
13493;SDS011;6819;50.886;4.332;2023-12-07T14:34:25;10.95;;;4.32;;
13493;SDS011;6819;50.886;4.332;2023-12-07T14:36:52;6.90;;;4.22;;
13493;SDS011;6819;50.886;4.332;2023-12-07T14:39:18;11.20;;;4.50;;
13493;SDS011;6819;50.886;4.332;2023-12-07T14:41:46;6.30;;;3.70;;
13493;SDS011;6819;50.886;4.332;2023-12-07T14:44:13;9.43;;;3.97;;
13493;SDS011;6819;50.886;4.332;2023-12-07T14:46:41;9.07;;;4.38;;
13493;SDS011;6819;50.886;4.332;2023-12-07T14:49:07;7.25;;;3.72;;
13493;SDS011;6819;50.886;4.332;2023-12-07T14:51:33;15.05;;;4.82;;
13493;SDS011;6819;50.886;4.332;2023-12-07T14:53:59;8.50;;;4.28;;